createdAt,value
2023-03-29T00:03:50.004Z,97409.13
2023-03-29T00:09:10.612Z,97418.50
2023-03-29T00:14:31.740Z,97409.69
2023-03-29T00:19:52.599Z,97409.34
2023-03-29T00:25:14.362Z,97421.94
2023-03-29T00:30:35.622Z,97423.31
2023-03-29T00:35:56.442Z,97423.63
2023-03-29T00:41:17.349Z,97408.69
2023-03-29T00:46:38.407Z,97412.84
2023-03-29T00:51:59.702Z,97409.88
2023-03-29T00:57:22.795Z,97405.53
2023-03-29T01:02:51.150Z,97397.19
2023-03-29T01:08:19.124Z,97379.91
2023-03-29T01:13:52.905Z,97375.78
2023-03-29T01:19:18.358Z,97375.34
2023-03-29T01:24:53.563Z,97370.34
2023-03-29T01:30:30.617Z,97368.28
2023-03-29T01:36:05.254Z,97364.47
2023-03-29T01:41:39.786Z,97363.75
2023-03-29T01:47:10.832Z,97365.09
2023-03-29T01:52:38.238Z,97361.19
2023-03-29T01:58:01.937Z,97366.44
2023-03-29T02:03:26.617Z,97364.06
2023-03-29T02:08:51.221Z,97366.97
2023-03-29T02:14:13.877Z,97349.38
2023-03-29T02:19:34.803Z,97347.38
2023-03-29T02:24:59.447Z,97334.84
2023-03-29T02:30:21.177Z,97316.81
2023-03-29T02:35:54.636Z,97316.59
2023-03-29T02:41:17.139Z,97329.47
2023-03-29T02:46:38.434Z,97301.66
2023-03-29T02:52:07.460Z,97304.31
2023-03-29T02:57:29.537Z,97292.34
2023-03-29T03:02:51.043Z,97293.47
2023-03-29T03:08:12.520Z,97287.44
2023-03-29T03:13:33.240Z,97285.97
2023-03-29T03:18:55.708Z,97293.06
2023-03-29T03:24:17.751Z,97278.06
2023-03-29T03:29:38.725Z,97277.31
2023-03-29T03:35:05.584Z,97286.31
2023-03-29T03:40:28.264Z,97272.69
2023-03-29T03:45:49.718Z,97269.56
2023-03-29T03:51:14.156Z,97261.03
2023-03-29T03:56:35.077Z,97264.53
2023-03-29T04:02:05.914Z,97271.97
2023-03-29T04:07:29.329Z,97252.38
2023-03-29T04:13:17.200Z,97260.34
2023-03-29T04:18:56.615Z,97262.66
2023-03-29T04:24:18.341Z,97265.00
2023-03-29T04:29:57.269Z,97256.22
2023-03-29T04:35:33.804Z,97262.50
2023-03-29T04:40:55.460Z,97262.78
2023-03-29T04:46:44.300Z,97261.03
2023-03-29T04:52:17.492Z,97264.94
2023-03-29T04:57:38.079Z,97262.84
2023-03-29T05:03:07.995Z,97274.66
2023-03-29T05:08:40.278Z,97271.03
2023-03-29T05:14:08.749Z,97269.44
2023-03-29T05:19:29.908Z,97260.34
2023-03-29T05:24:52.902Z,97257.53
2023-03-29T05:30:15.489Z,97249.56
2023-03-29T05:35:46.091Z,97242.06
2023-03-29T05:41:07.176Z,97241.03
2023-03-29T05:46:47.979Z,97240.44
2023-03-29T05:52:11.696Z,97237.25
2023-03-29T05:57:35.020Z,97240.19
2023-03-29T06:03:06.459Z,97238.28
2023-03-29T06:08:33.556Z,97224.19
2023-03-29T06:14:03.831Z,97236.56
2023-03-29T06:19:25.869Z,97233.22
2023-03-29T06:24:49.018Z,97234.03
2023-03-29T06:30:19.345Z,97228.63
2023-03-29T06:35:47.229Z,97223.78
2023-03-29T06:41:11.700Z,97222.38
2023-03-29T06:47:10.252Z,97228.53
2023-03-29T06:52:30.850Z,97231.31
2023-03-29T06:57:52.774Z,97223.31
2023-03-29T07:03:20.274Z,97225.25
2023-03-29T07:08:45.101Z,97228.50
2023-03-29T07:14:33.536Z,97225.16
2023-03-29T07:19:55.059Z,97234.06
2023-03-29T07:25:38.835Z,97228.19
2023-03-29T07:31:06.819Z,97225.63
2023-03-29T07:36:34.476Z,97224.41
2023-03-29T07:41:57.771Z,97222.09
2023-03-29T07:47:19.704Z,97217.94
2023-03-29T07:52:41.485Z,97218.53
2023-03-29T07:58:04.359Z,97217.59
2023-03-29T08:03:27.890Z,97206.38
2023-03-29T08:08:48.906Z,97212.19
2023-03-29T08:14:11.632Z,97214.16
2023-03-29T08:19:56.037Z,97209.41
2023-03-29T08:25:18.624Z,97205.19
2023-03-29T08:30:43.567Z,97206.44
2023-03-29T08:36:04.722Z,97220.88
2023-03-29T08:42:11.523Z,97216.09
2023-03-29T08:47:47.091Z,97209.88
2023-03-29T08:53:35.189Z,97197.03
2023-03-29T08:59:19.657Z,97206.38
2023-03-29T09:04:42.579Z,97206.84
2023-03-29T09:10:47.760Z,97216.22
2023-03-29T09:16:45.100Z,97222.16
2023-03-29T09:22:32.615Z,97216.78
2023-03-29T09:28:18.381Z,97201.22
2023-03-29T09:33:59.464Z,97200.13
2023-03-29T09:39:32.000Z,97197.25
2023-03-29T09:45:08.525Z,97187.19
2023-03-29T09:50:38.545Z,97176.97
2023-03-29T09:56:02.355Z,97182.28
2023-03-29T10:01:38.668Z,97176.81
2023-03-29T10:07:01.693Z,97177.28
2023-03-29T10:12:23.244Z,97161.72
2023-03-29T10:17:46.268Z,97159.72
2023-03-29T10:23:09.255Z,97153.63
2023-03-29T10:28:32.175Z,97151.63
2023-03-29T10:33:56.204Z,97150.59
2023-03-29T10:39:17.344Z,97150.81
2023-03-29T10:44:38.685Z,97148.88
2023-03-29T10:49:59.737Z,97143.03
2023-03-29T10:55:25.248Z,97126.84
2023-03-29T11:00:55.355Z,97112.75
2023-03-29T11:06:28.179Z,97111.06
2023-03-29T11:12:15.613Z,97099.31
2023-03-29T11:18:09.757Z,97097.81
2023-03-29T11:23:48.778Z,97098.06
2023-03-29T11:29:40.149Z,97086.81
2023-03-29T11:35:19.167Z,97080.00
2023-03-29T11:40:43.132Z,97081.41
2023-03-29T11:46:14.043Z,97083.91
2023-03-29T11:51:41.389Z,97076.56
2023-03-29T11:57:07.263Z,97068.94
2023-03-29T12:02:37.230Z,97057.66
2023-03-29T12:08:09.306Z,97050.75
2023-03-29T12:14:05.061Z,97043.59
2023-03-29T12:19:40.386Z,97040.28
2023-03-29T12:25:06.453Z,97031.66
2023-03-29T12:30:45.262Z,97036.66
2023-03-29T12:36:32.654Z,97030.03
2023-03-29T12:42:22.187Z,97024.34
2023-03-29T12:48:02.424Z,97027.84
2023-03-29T12:53:26.996Z,97021.59
2023-03-29T12:59:16.899Z,97026.84
2023-03-29T13:04:50.233Z,97015.28
2023-03-29T13:10:31.411Z,97007.25
2023-03-29T13:15:52.356Z,96995.66
2023-03-29T13:21:28.582Z,96986.75
2023-03-29T13:26:57.559Z,96975.91
2023-03-29T13:32:27.920Z,96967.31
2023-03-29T13:38:00.210Z,96969.56
2023-03-29T13:43:30.993Z,96971.31
2023-03-29T13:49:01.733Z,96963.78
2023-03-29T13:54:41.779Z,96952.88
2023-03-29T14:00:18.144Z,96955.00
2023-03-29T14:05:41.915Z,96941.19
2023-03-29T14:11:05.511Z,96946.50
2023-03-29T14:16:32.893Z,96952.19
2023-03-29T14:21:53.486Z,96944.38
2023-03-29T14:27:16.120Z,96941.69
2023-03-29T14:32:39.320Z,96927.25
2023-03-29T14:38:01.653Z,96917.47
2023-03-29T14:43:24.207Z,96908.22
2023-03-29T14:48:45.585Z,96913.75
2023-03-29T14:54:07.555Z,96914.22
2023-03-29T14:59:36.845Z,96908.31
2023-03-29T15:05:08.562Z,96911.13
2023-03-29T15:10:33.383Z,96907.44
2023-03-29T15:16:00.834Z,96912.25
2023-03-29T15:21:22.758Z,96905.41
2023-03-29T15:26:43.626Z,96905.03
2023-03-29T15:32:04.404Z,96901.38
2023-03-29T15:37:25.448Z,96894.84
2023-03-29T15:42:46.622Z,96901.69
2023-03-29T15:48:19.881Z,96903.03
2023-03-29T15:53:41.222Z,96903.97
2023-03-29T15:59:02.177Z,96895.78
2023-03-29T16:04:23.005Z,96880.75
2023-03-29T16:09:45.257Z,96875.38
2023-03-29T16:15:15.939Z,96871.50
2023-03-29T16:20:38.321Z,96873.72
2023-03-29T16:25:59.557Z,96869.91
2023-03-29T16:31:23.608Z,96869.59
2023-03-29T16:36:45.095Z,96873.28
2023-03-29T16:42:06.278Z,96868.38
2023-03-29T16:47:27.515Z,96874.28
2023-03-29T16:52:51.507Z,96866.78
2023-03-29T16:58:12.495Z,96865.66
2023-03-29T17:03:33.138Z,96860.19
2023-03-29T17:08:53.959Z,96857.09
2023-03-29T17:14:15.404Z,96851.16
2023-03-29T17:19:36.170Z,96856.56
2023-03-29T17:24:57.166Z,96855.25
2023-03-29T17:30:18.315Z,96857.06
2023-03-29T17:35:41.761Z,96854.03
2023-03-29T17:41:04.503Z,96857.56
2023-03-29T17:46:25.997Z,96867.22
2023-03-29T17:51:46.988Z,96866.03
2023-03-29T17:57:07.796Z,96864.88
2023-03-29T18:02:28.496Z,96863.25
2023-03-29T18:07:49.758Z,96875.06
2023-03-29T18:13:13.938Z,96871.31
2023-03-29T18:18:34.918Z,96876.16
2023-03-29T18:23:57.023Z,96871.13
2023-03-29T18:29:18.211Z,96878.69
2023-03-29T18:34:39.483Z,96879.50
2023-03-29T18:40:00.382Z,96896.56
2023-03-29T18:45:22.302Z,96901.13
2023-03-29T18:50:47.003Z,96909.03
2023-03-29T18:56:08.205Z,96904.97
2023-03-29T19:01:28.882Z,96910.19
2023-03-29T19:06:49.557Z,96911.97
2023-03-29T19:12:10.597Z,96908.06
2023-03-29T19:17:32.213Z,96916.44
2023-03-29T19:22:53.548Z,96913.31
2023-03-29T19:28:14.537Z,96908.50
2023-03-29T19:33:35.193Z,96909.94
2023-03-29T19:38:56.161Z,96911.19
2023-03-29T19:44:17.458Z,96910.34
2023-03-29T19:49:38.723Z,96908.16
2023-03-29T19:54:59.819Z,96904.50
2023-03-29T20:00:24.458Z,96900.38
2023-03-29T20:05:46.862Z,96896.78
2023-03-29T20:11:10.367Z,96884.50
2023-03-29T20:16:34.380Z,96870.34
2023-03-29T20:21:57.792Z,96863.84
2023-03-29T20:27:18.666Z,96868.81
2023-03-29T20:32:39.765Z,96854.09
2023-03-29T20:38:00.727Z,96857.28
2023-03-29T20:43:21.525Z,96848.59
2023-03-29T20:48:54.420Z,96845.28
2023-03-29T20:54:15.386Z,96843.75
2023-03-29T20:59:38.028Z,96835.97
2023-03-29T21:05:00.297Z,96832.47
2023-03-29T21:10:23.741Z,96821.38
2023-03-29T21:15:46.490Z,96823.50
2023-03-29T21:21:11.777Z,96812.16
2023-03-29T21:26:32.868Z,96811.97
2023-03-29T21:31:53.797Z,96808.06
2023-03-29T21:37:15.349Z,96805.56
2023-03-29T21:42:36.276Z,96803.34
2023-03-29T21:47:57.363Z,96797.44
2023-03-29T21:53:18.533Z,96792.84
2023-03-29T21:58:39.355Z,96796.16
2023-03-29T22:04:00.287Z,96789.19
2023-03-29T22:09:21.296Z,96781.59
2023-03-29T22:14:42.094Z,96770.03
2023-03-29T22:20:13.778Z,96765.91
2023-03-29T22:25:37.199Z,96749.69
2023-03-29T22:31:02.188Z,96758.31
2023-03-29T22:36:26.353Z,96752.31
2023-03-29T22:41:47.278Z,96756.44
2023-03-29T22:47:08.414Z,96755.38
2023-03-29T22:52:29.310Z,96747.38
2023-03-29T22:57:49.945Z,96753.97
2023-03-29T23:03:10.622Z,96746.41
2023-03-29T23:08:33.262Z,96746.06
2023-03-29T23:13:54.260Z,96738.88
2023-03-29T23:19:15.023Z,96737.00
2023-03-29T23:24:35.614Z,96731.59
2023-03-29T23:29:56.404Z,96728.16
2023-03-29T23:35:17.072Z,96729.81
2023-03-29T23:40:37.799Z,96730.53
2023-03-29T23:46:01.143Z,96729.31
2023-03-29T23:51:28.833Z,96728.88
2023-03-29T23:56:49.848Z,96716.38
